Alma, Kansas
Current Conditions -  °F | °C
As of 6:52 PM on Friday 19 Dec 2014 (Local Time) from KMHK Reporting Station
Overcast Overcast  
Wind Chill:   Ceiling: 1600
Heat Index:   Visibility: 9mi
Dew Point: -1°   Wind: 0mph
Humidity: 85%   Direction: NA
Pressure: 30.18"   Gusts: NA
Location:  39.02°N, 96.29°W
Report Text: KMHK 200052Z 00000KT 9SM OVC016 01/M01 A3018 RMK AO2 SLP230 T00111011
Loading
Personal Weather Stations






























Interactive Weather Map New forecast layout! Learn more

10-Day Weather Forecast

Advertisements
Track Severe Weather on mobile